Time,TemperatureF,DewpointF,PressureIn,WindDirection,WindDirectionDegrees,WindSpeedMPH,WindSpeedGustMPH,Humidity,HourlyPrecipIn,Conditions,Clouds,dailyrainin,SoftwareType,DateUTC
2013-04-06 00:02:00,39.9,26.0,29.87,NW,312,3.0,5.0,59,0.00,,,0.00,weatherlink.com 1.10,2013-04-06 04:02:00,
2013-04-06 00:17:00,39.6,27.0,29.87,NW,312,3.0,6.0,60,0.00,,,0.00,weatherlink.com 1.10,2013-04-06 04:17:00,
2013-04-06 00:32:00,39.2,27.0,29.87,NW,313,0.0,5.0,61,0.00,,,0.00,weatherlink.com 1.10,2013-04-06 04:32:00,
2013-04-06 00:47:00,38.8,27.0,29.88,NW,317,1.0,4.0,62,0.00,,,0.00,weatherlink.com 1.10,2013-04-06 04:47:00,
2013-04-06 01:02:00,38.4,26.0,29.89,WNW,299,6.0,7.0,62,0.00,,,0.00,weatherlink.com 1.10,2013-04-06 05:02:00,
2013-04-06 01:17:00,38.1,25.0,29.89,WNW,302,0.0,9.0,59,0.00,,,0.00,weatherlink.com 1.10,2013-04-06 05:17:00,
2013-04-06 01:32:00,37.9,24.0,29.90,NW,312,3.0,10.0,57,0.00,,,0.00,weatherlink.com 1.10,2013-04-06 05:32:00,
2013-04-06 01:47:00,37.6,24.0,29.90,NNW,336,1.0,6.0,58,0.00,,,0.00,weatherlink.com 1.10,2013-04-06 05:47:00,
2013-04-06 02:02:00,37.3,24.0,29.90,North,355,1.0,6.0,59,0.00,,,0.00,weatherlink.com 1.10,2013-04-06 06:02:00,
2013-04-06 02:17:00,36.7,23.0,29.91,West,272,0.0,3.0,59,0.00,,,0.00,weatherlink.com 1.10,2013-04-06 06:17:00,
2013-04-06 02:32:00,36.4,22.0,29.92,NW,313,4.0,9.0,57,0.00,,,0.00,weatherlink.com 1.10,2013-04-06 06:32:00,
2013-04-06 02:47:00,36.6,18.0,29.92,NW,323,3.0,10.0,48,0.00,,,0.00,weatherlink.com 1.10,2013-04-06 06:47:00,
2013-04-06 03:02:00,36.4,17.0,29.93,NW,326,7.0,9.0,45,0.00,,,0.00,weatherlink.com 1.10,2013-04-06 07:02:00,
2013-04-06 03:17:00,36.2,16.0,29.94,West,279,2.0,15.0,44,0.00,,,0.00,weatherlink.com 1.10,2013-04-06 07:17:00,
2013-04-06 03:32:00,35.8,16.0,29.95,West,275,1.0,11.0,45,0.00,,,0.00,weatherlink.com 1.10,2013-04-06 07:32:00,
2013-04-06 03:48:00,35.3,17.0,29.96,West,269,2.0,8.0,47,0.00,,,0.00,weatherlink.com 1.10,2013-04-06 07:48:00,
2013-04-06 04:03:00,35.1,16.0,29.97,West,269,5.0,16.0,45,0.00,,,0.00,weatherlink.com 1.10,2013-04-06 08:03:00,
2013-04-06 04:18:00,34.9,15.0,29.98,WNW,302,1.0,12.0,45,0.00,,,0.00,weatherlink.com 1.10,2013-04-06 08:18:00,
2013-04-06 04:33:00,34.6,15.0,29.99,WNW,285,7.0,13.0,44,0.00,,,0.00,weatherlink.com 1.10,2013-04-06 08:33:00,
2013-04-06 04:48:00,34.4,14.0,30.00,NNW,338,6.0,16.0,44,0.00,,,0.00,weatherlink.com 1.10,2013-04-06 08:48:00,
2013-04-06 05:03:00,34.2,14.0,30.01,NNE,16,0.0,12.0,44,0.00,,,0.00,weatherlink.com 1.10,2013-04-06 09:03:00,
2013-04-06 05:18:00,34.0,14.0,30.02,WSW,254,3.0,10.0,44,0.00,,,0.00,weatherlink.com 1.10,2013-04-06 09:18:00,
2013-04-06 05:33:00,33.7,14.0,30.03,NNW,342,8.0,10.0,45,0.00,,,0.00,weatherlink.com 1.10,2013-04-06 09:33:00,
2013-04-06 05:48:00,33.4,13.0,30.05,WNW,298,7.0,10.0,44,0.00,,,0.00,weatherlink.com 1.10,2013-04-06 09:48:00,
2013-04-06 06:03:00,32.9,12.0,30.05,NNW,327,0.0,13.0,43,0.00,,,0.00,weatherlink.com 1.10,2013-04-06 10:03:00,
2013-04-06 06:18:00,32.7,12.0,30.07,WNW,285,2.0,15.0,43,0.00,,,0.00,weatherlink.com 1.10,2013-04-06 10:18:00,
2013-04-06 06:33:00,32.5,12.0,30.08,WNW,290,5.0,12.0,43,0.00,,,0.00,weatherlink.com 1.10,2013-04-06 10:33:00,
2013-04-06 06:48:00,32.3,12.0,30.09,SSW,205,0.0,8.0,44,0.00,,,0.00,weatherlink.com 1.10,2013-04-06 10:48:00,
2013-04-06 07:03:00,32.1,12.0,30.10,NW,311,0.0,7.0,44,0.00,,,0.00,weatherlink.com 1.10,2013-04-06 11:03:00,
2013-04-06 07:18:00,32.1,12.0,30.11,East,92,2.0,8.0,43,0.00,,,0.00,weatherlink.com 1.10,2013-04-06 11:18:00,
2013-04-06 07:33:00,32.5,12.0,30.12,NNE,24,0.0,10.0,42,0.00,,,0.00,weatherlink.com 1.10,2013-04-06 11:33:00,
2013-04-06 08:49:00,33.8,7.0,30.17,NW,317,10.0,16.0,33,0.00,,,0.00,weatherlink.com 1.10,2013-04-06 12:49:00,
2013-04-06 09:03:00,33.6,7.0,30.17,NNW,338,3.0,15.0,33,0.00,,,0.00,weatherlink.com 1.10,2013-04-06 13:03:00,
2013-04-06 09:19:00,33.6,7.0,30.17,North,350,8.0,16.0,33,0.00,,,0.00,weatherlink.com 1.10,2013-04-06 13:19:00,
2013-04-06 09:49:00,34.7,7.0,30.19,NW,309,9.0,13.0,32,0.00,,,0.00,weatherlink.com 1.10,2013-04-06 13:49:00,
2013-04-06 10:04:00,35.6,8.0,30.19,NW,321,8.0,9.0,31,0.00,,,0.00,weatherlink.com 1.10,2013-04-06 14:04:00,
2013-04-06 10:19:00,35.9,7.0,30.19,NNE,30,0.0,12.0,30,0.00,,,0.00,weatherlink.com 1.10,2013-04-06 14:19:00,
2013-04-06 10:34:00,37.7,7.0,30.20,NW,311,4.0,9.0,28,0.00,,,0.00,weatherlink.com 1.10,2013-04-06 14:34:00,
2013-04-06 10:49:00,37.4,6.0,30.20,NNW,338,5.0,12.0,27,0.00,,,0.00,weatherlink.com 1.10,2013-04-06 14:49:00,
2013-04-06 11:04:00,37.2,5.0,30.20,NW,312,3.0,12.0,26,0.00,,,0.00,weatherlink.com 1.10,2013-04-06 15:04:00,
2013-04-06 11:19:00,38.0,5.0,30.21,NNE,20,5.0,11.0,25,0.00,,,0.00,weatherlink.com 1.10,2013-04-06 15:19:00,
2013-04-06 11:34:00,38.2,4.0,30.20,ENE,61,7.0,12.0,24,0.00,,,0.00,weatherlink.com 1.10,2013-04-06 15:34:00,
2013-04-06 11:49:00,38.8,5.0,30.21,NNW,327,7.0,15.0,24,0.00,,,0.00,weatherlink.com 1.10,2013-04-06 15:49:00,
2013-04-06 12:04:00,39.4,4.0,30.21,NW,309,6.0,9.0,23,0.00,,,0.00,weatherlink.com 1.10,2013-04-06 16:04:00,
2013-04-06 12:19:00,39.6,5.0,30.20,WNW,299,5.0,19.0,24,0.00,,,0.00,weatherlink.com 1.10,2013-04-06 16:19:00,
2013-04-06 12:34:00,39.9,3.0,30.20,North,349,4.0,16.0,21,0.00,,,0.00,weatherlink.com 1.10,2013-04-06 16:34:00,
2013-04-06 13:19:00,42.3,4.0,30.20,SE,134,1.0,10.0,20,0.00,,,0.00,weatherlink.com 1.10,2013-04-06 17:19:00,
2013-04-06 13:49:00,43.1,2.0,30.20,NNW,329,6.0,11.0,18,0.00,,,0.00,weatherlink.com 1.10,2013-04-06 17:49:00,
2013-04-06 14:04:00,43.6,2.0,30.21,WNW,292,2.0,12.0,18,0.00,,,0.00,weatherlink.com 1.10,2013-04-06 18:04:00,
2013-04-06 14:19:00,44.2,4.0,30.21,NW,304,3.0,8.0,19,0.00,,,0.00,weatherlink.com 1.10,2013-04-06 18:19:00,
2013-04-06 14:34:00,44.7,3.0,30.20,WNW,287,4.0,11.0,18,0.00,,,0.00,weatherlink.com 1.10,2013-04-06 18:34:00,
2013-04-06 14:49:00,44.9,4.0,30.20,WSW,246,3.0,9.0,18,0.00,,,0.00,weatherlink.com 1.10,2013-04-06 18:49:00,
2013-04-06 15:04:00,45.7,4.0,30.19,WSW,252,2.0,6.0,18,0.00,,,0.00,weatherlink.com 1.10,2013-04-06 19:04:00,
2013-04-06 15:19:00,45.6,4.0,30.20,NNE,16,5.0,10.0,18,0.00,,,0.00,weatherlink.com 1.10,2013-04-06 19:19:00,
2013-04-06 15:34:00,46.5,2.0,30.19,NNW,340,2.0,8.0,16,0.00,,,0.00,weatherlink.com 1.10,2013-04-06 19:34:00,
2013-04-06 15:49:00,46.8,4.0,30.19,SW,229,8.0,8.0,17,0.00,,,0.00,weatherlink.com 1.10,2013-04-06 19:49:00,
2013-04-06 16:04:00,47.2,4.0,30.20,WNW,291,2.0,9.0,17,0.00,,,0.00,weatherlink.com 1.10,2013-04-06 20:04:00,
2013-04-06 16:19:00,47.3,3.0,30.20,East,85,2.0,7.0,16,0.00,,,0.00,weatherlink.com 1.10,2013-04-06 20:19:00,
2013-04-06 16:34:00,47.2,3.0,30.20,NNW,329,2.0,7.0,16,0.00,,,0.00,weatherlink.com 1.10,2013-04-06 20:34:00,
2013-04-06 16:49:00,46.7,4.0,30.20,WSW,256,0.0,7.0,17,0.00,,,0.00,weatherlink.com 1.10,2013-04-06 20:49:00,
2013-04-06 17:04:00,47.8,3.0,30.21,NW,304,3.0,6.0,16,0.00,,,0.00,weatherlink.com 1.10,2013-04-06 21:04:00,
2013-04-06 17:19:00,47.1,3.0,30.21,North,360,3.0,7.0,16,0.00,,,0.00,weatherlink.com 1.10,2013-04-06 21:19:00,
2013-04-06 17:34:00,47.2,4.0,30.22,NNW,329,2.0,7.0,17,0.00,,,0.00,weatherlink.com 1.10,2013-04-06 21:34:00,
2013-04-06 17:49:00,47.1,3.0,30.23,WNW,297,4.0,5.0,16,0.00,,,0.00,weatherlink.com 1.10,2013-04-06 21:49:00,
2013-04-06 18:04:00,46.2,3.0,30.23,West,264,0.0,4.0,17,0.00,,,0.00,weatherlink.com 1.10,2013-04-06 22:04:00,
2013-04-06 18:19:00,46.1,5.0,30.24,West,276,2.0,6.0,18,0.00,,,0.00,weatherlink.com 1.10,2013-04-06 22:19:00,
2013-04-06 18:34:00,45.5,4.0,30.25,West,275,0.0,4.0,18,0.00,,,0.00,weatherlink.com 1.10,2013-04-06 22:34:00,
2013-04-06 18:49:00,44.7,3.0,30.26,West,272,0.0,3.0,18,0.00,,,0.00,weatherlink.com 1.10,2013-04-06 22:49:00,
2013-04-06 19:19:00,43.2,6.0,30.27,West,267,0.0,1.0,21,0.00,,,0.00,weatherlink.com 1.10,2013-04-06 23:19:00,
2013-04-06 19:34:00,42.3,6.0,30.27,WSW,244,0.0,1.0,22,0.00,,,0.00,weatherlink.com 1.10,2013-04-06 23:34:00,
2013-04-06 19:50:00,41.3,8.0,30.28,WSW,244,0.0,0.0,25,0.00,,,0.00,weatherlink.com 1.10,2013-04-06 23:50:00,
2013-04-06 20:05:00,40.2,9.0,30.29,WSW,244,0.0,1.0,28,0.00,,,0.00,weatherlink.com 1.10,2013-04-07 00:05:00,
2013-04-06 20:20:00,39.1,9.0,30.30,WSW,244,0.0,0.0,29,0.00,,,0.00,weatherlink.com 1.10,2013-04-07 00:20:00,
2013-04-06 20:35:00,38.3,11.0,30.30,WSW,243,0.0,0.0,32,0.00,,,0.00,weatherlink.com 1.10,2013-04-07 00:35:00,
2013-04-06 20:50:00,37.7,12.0,30.30,WSW,244,0.0,0.0,35,0.00,,,0.00,weatherlink.com 1.10,2013-04-07 00:50:00,
2013-04-06 21:05:00,37.4,13.0,30.30,SE,144,0.0,1.0,37,0.00,,,0.00,weatherlink.com 1.10,2013-04-07 01:05:00,
2013-04-06 21:20:00,36.9,13.0,30.30,SE,144,0.0,1.0,38,0.00,,,0.00,weatherlink.com 1.10,2013-04-07 01:20:00,
2013-04-06 21:35:00,36.1,13.0,30.30,SE,144,0.0,0.0,38,0.00,,,0.00,weatherlink.com 1.10,2013-04-07 01:35:00,
2013-04-06 21:50:00,35.3,14.0,30.30,SE,144,0.0,0.0,42,0.00,,,0.00,weatherlink.com 1.10,2013-04-07 01:50:00,
2013-04-06 22:05:00,34.4,14.0,30.31,SE,144,0.0,0.0,44,0.00,,,0.00,weatherlink.com 1.10,2013-04-07 02:05:00,
2013-04-06 22:20:00,33.7,15.0,30.31,SE,144,0.0,0.0,46,0.00,,,0.00,weatherlink.com 1.10,2013-04-07 02:20:00,
2013-04-06 22:35:00,33.3,15.0,30.31,SE,144,0.0,1.0,47,0.00,,,0.00,weatherlink.com 1.10,2013-04-07 02:35:00,
2013-04-06 22:50:00,33.0,14.0,30.31,SE,145,0.0,0.0,46,0.00,,,0.00,weatherlink.com 1.10,2013-04-07 02:50:00,
2013-04-06 23:05:00,32.5,14.0,30.32,SE,145,0.0,0.0,47,0.00,,,0.00,weatherlink.com 1.10,2013-04-07 03:05:00,
2013-04-06 23:20:00,31.9,15.0,30.32,SE,146,0.0,0.0,49,0.00,,,0.00,weatherlink.com 1.10,2013-04-07 03:20:00,
2013-04-06 23:35:00,32.1,15.0,30.32,SW,234,0.0,0.0,49,0.00,,,0.00,weatherlink.com 1.10,2013-04-07 03:35:00,
2013-04-06 23:50:00,31.2,15.0,30.32,SW,234,0.0,0.0,51,0.00,,,0.00,weatherlink.com 1.10,2013-04-07 03:50:00,